createdAt,value
2022-09-22T00:01:40.283Z,3.17
2022-09-22T00:06:47.337Z,2.92
2022-09-22T00:11:54.024Z,3.00
2022-09-22T00:16:58.649Z,3.50
2022-09-22T00:27:05.112Z,3.30
2022-09-22T00:32:07.841Z,3.00
2022-09-22T00:37:10.379Z,3.38
2022-09-22T00:42:14.466Z,2.80
2022-09-22T00:47:28.129Z,2.50
2022-09-22T00:52:34.357Z,3.38
2022-09-22T00:57:40.465Z,2.78
2022-09-22T01:02:43.312Z,3.50
2022-09-22T01:07:47.607Z,3.42
2022-09-22T01:13:02.709Z,2.63
2022-09-22T01:18:16.461Z,3.33
2022-09-22T01:23:42.537Z,3.50
2022-09-22T01:29:18.586Z,3.15
2022-09-22T01:34:30.028Z,3.08
2022-09-22T01:39:39.880Z,3.13
2022-09-22T01:44:49.225Z,3.03
2022-09-22T01:49:57.694Z,3.92
2022-09-22T01:55:04.942Z,3.17
2022-09-22T02:00:10.088Z,3.40
2022-09-22T02:05:19.470Z,3.83
2022-09-22T02:10:29.209Z,4.05
2022-09-22T02:15:49.833Z,3.72
2022-09-22T02:20:53.811Z,4.15
2022-09-22T02:25:56.755Z,3.72
2022-09-22T02:31:19.627Z,3.97
2022-09-22T02:36:51.823Z,4.40
2022-09-22T02:42:07.546Z,4.40
2022-09-22T02:47:15.034Z,4.07
2022-09-22T02:52:21.071Z,4.20
2022-09-22T02:57:23.992Z,3.53
2022-09-22T03:02:26.751Z,4.13
2022-09-22T03:07:30.680Z,4.20
2022-09-22T03:12:33.173Z,2.97
2022-09-22T03:17:35.664Z,4.00
2022-09-22T03:22:40.513Z,4.07
2022-09-22T03:27:43.214Z,4.15
2022-09-22T03:32:48.508Z,4.07
2022-09-22T03:37:52.339Z,4.20
2022-09-22T03:42:54.978Z,4.20
2022-09-22T03:47:59.031Z,3.83
2022-09-22T03:53:02.813Z,4.68
2022-09-22T03:58:05.277Z,3.83
2022-09-22T04:03:08.856Z,4.32
2022-09-22T04:08:12.789Z,4.55
2022-09-22T04:13:15.924Z,3.83
2022-09-22T04:18:18.445Z,4.10
2022-09-22T04:23:22.264Z,4.38
2022-09-22T04:28:25.074Z,4.33
2022-09-22T04:33:28.071Z,4.63
2022-09-22T04:38:31.889Z,4.93
2022-09-22T04:43:34.361Z,3.43
2022-09-22T04:48:37.154Z,4.70
2022-09-22T04:53:40.954Z,4.72
2022-09-22T04:58:43.411Z,5.53
2022-09-22T05:03:46.108Z,4.82
2022-09-22T05:08:49.905Z,5.03
2022-09-22T05:14:00.199Z,5.20
2022-09-22T05:19:02.682Z,5.68
2022-09-22T05:24:06.994Z,5.07
2022-09-22T05:29:09.989Z,4.35
2022-09-22T05:34:12.628Z,5.70
2022-09-22T05:39:16.709Z,5.82
2022-09-22T05:44:19.555Z,5.55
2022-09-22T05:49:22.020Z,5.38
2022-09-22T05:54:26.119Z,5.65
2022-09-22T05:59:28.577Z,5.40
2022-09-22T06:04:31.232Z,4.80
2022-09-22T06:09:35.016Z,5.90
2022-09-22T06:14:37.762Z,6.60
2022-09-22T06:19:41.560Z,5.68
2022-09-22T06:24:45.891Z,4.60
2022-09-22T06:29:48.684Z,4.18
2022-09-22T06:34:51.494Z,4.50
2022-09-22T06:39:55.424Z,4.85
2022-09-22T06:44:57.880Z,4.63
2022-09-22T06:50:02.300Z,4.88
2022-09-22T06:55:07.260Z,3.25
2022-09-22T07:00:11.282Z,5.30
2022-09-22T07:05:18.609Z,4.88
2022-09-22T07:10:22.364Z,5.45
2022-09-22T07:15:24.768Z,5.10
2022-09-22T07:20:28.956Z,5.03
2022-09-22T07:25:35.907Z,5.10
2022-09-22T07:30:40.228Z,4.70
2022-09-22T07:35:42.767Z,4.72
2022-09-22T07:40:54.784Z,5.25
2022-09-22T07:45:58.327Z,4.03
2022-09-22T07:51:00.752Z,4.28
2022-09-22T07:56:06.208Z,4.55
2022-09-22T08:01:09.929Z,4.68
2022-09-22T08:06:13.464Z,4.90
2022-09-22T08:11:19.064Z,4.30
2022-09-22T08:16:22.597Z,5.72
2022-09-22T08:21:25.994Z,8.90
2022-09-22T08:26:29.851Z,10.50
2022-09-22T08:31:33.276Z,14.40
2022-09-22T08:36:37.753Z,24.83
2022-09-22T08:46:51.308Z,7.03
2022-09-22T08:51:58.831Z,3.85
2022-09-22T08:57:15.590Z,4.70
2022-09-22T09:02:36.326Z,4.32
2022-09-22T09:07:48.389Z,6.78
2022-09-22T09:13:09.077Z,4.00
2022-09-22T09:18:15.686Z,3.58
2022-09-22T09:23:20.156Z,3.47
2022-09-22T09:28:33.774Z,3.50
2022-09-22T09:33:43.740Z,3.93
2022-09-22T09:38:51.854Z,5.57
2022-09-22T09:43:57.682Z,4.30
2022-09-22T09:49:08.132Z,2.80
2022-09-22T09:54:16.971Z,2.60
2022-09-22T09:59:45.415Z,3.15
2022-09-22T10:04:52.889Z,3.38
2022-09-22T10:09:57.084Z,2.75
2022-09-22T10:15:02.480Z,2.20
2022-09-22T10:20:20.359Z,5.20
2022-09-22T10:25:24.970Z,3.00
2022-09-22T10:30:37.229Z,2.47
2022-09-22T10:35:41.185Z,2.47
2022-09-22T10:40:48.755Z,2.53
2022-09-22T10:46:12.822Z,2.30
2022-09-22T10:51:27.217Z,2.42
2022-09-22T10:56:37.578Z,1.58
2022-09-22T11:01:57.040Z,1.60
2022-09-22T11:07:32.715Z,2.13
2022-09-22T11:12:49.497Z,2.20
2022-09-22T11:18:08.102Z,3.05
2022-09-22T11:23:47.376Z,3.53
2022-09-22T11:29:07.641Z,3.60
2022-09-22T11:34:42.993Z,3.40
2022-09-22T11:39:52.994Z,3.15
2022-09-22T11:45:06.185Z,3.30
2022-09-22T11:50:25.532Z,2.33
2022-09-22T11:55:37.456Z,2.40
2022-09-22T12:00:45.658Z,3.50
2022-09-22T12:05:54.364Z,4.47
2022-09-22T12:10:57.395Z,2.97
2022-09-22T12:21:24.376Z,4.30
2022-09-22T12:26:30.910Z,5.22
2022-09-22T12:31:36.206Z,5.45
2022-09-22T12:36:41.285Z,4.97
2022-09-22T12:41:48.068Z,1.40
2022-09-22T12:46:51.592Z,0.93
2022-09-22T12:57:00.379Z,0.60
2022-09-22T13:02:27.412Z,0.40
2022-09-22T13:07:37.410Z,0.73
2022-09-22T13:12:39.939Z,0.80
2022-09-22T13:17:44.624Z,0.55
2022-09-22T13:22:48.726Z,0.60
2022-09-22T13:33:19.808Z,1.92
2022-09-22T13:38:24.861Z,1.20
2022-09-22T13:43:31.918Z,0.77
2022-09-22T13:48:37.287Z,0.95
2022-09-22T13:53:46.204Z,0.60
2022-09-22T13:58:51.380Z,0.70
2022-09-22T14:03:55.190Z,1.33
2022-09-22T14:14:06.763Z,1.35
2022-09-22T14:19:24.113Z,1.00
2022-09-22T14:24:29.920Z,1.25
2022-09-22T14:29:35.374Z,1.20
2022-09-22T14:34:39.080Z,2.03
2022-09-22T14:39:46.760Z,1.20
2022-09-22T14:44:51.272Z,1.77
2022-09-22T14:50:14.340Z,0.80
2022-09-22T14:55:28.729Z,0.70
2022-09-22T15:00:49.373Z,0.82
2022-09-22T15:05:52.329Z,0.65
2022-09-22T15:10:59.324Z,0.90
2022-09-22T15:16:02.000Z,0.70
2022-09-22T15:21:11.738Z,0.50
2022-09-22T15:26:22.893Z,0.50
2022-09-22T15:31:28.287Z,0.70
2022-09-22T15:36:33.310Z,0.43
2022-09-22T15:41:37.496Z,0.57
2022-09-22T15:46:41.019Z,0.70
2022-09-22T15:51:45.361Z,0.70
2022-09-22T15:56:52.268Z,0.52
2022-09-22T16:01:57.159Z,0.65
2022-09-22T16:07:03.034Z,0.90
2022-09-22T16:12:11.003Z,0.85
2022-09-22T16:17:13.628Z,1.00
2022-09-22T16:22:17.353Z,0.82
2022-09-22T16:27:21.764Z,0.85
2022-09-22T16:37:27.198Z,1.02
2022-09-22T16:42:30.998Z,1.55
2022-09-22T16:47:33.915Z,1.75
2022-09-22T16:52:38.138Z,2.20
2022-09-22T16:57:42.469Z,2.25
2022-09-22T17:02:45.869Z,3.45
2022-09-22T17:07:49.959Z,2.20
2022-09-22T17:12:56.269Z,1.80
2022-09-22T17:17:58.882Z,1.80
2022-09-22T17:23:01.963Z,1.70
2022-09-22T17:28:06.495Z,2.17
2022-09-22T17:33:09.232Z,2.50
2022-09-22T17:38:11.810Z,3.30
2022-09-22T17:43:20.285Z,4.28
2022-09-22T17:48:40.102Z,4.93
2022-09-22T17:54:00.635Z,5.95
2022-09-22T17:59:04.906Z,4.78
2022-09-22T18:04:07.444Z,3.80
2022-09-22T18:09:09.872Z,5.40
2022-09-22T18:14:14.736Z,4.78
2022-09-22T18:19:17.387Z,8.88
2022-09-22T18:24:20.351Z,5.78
2022-09-22T18:29:25.151Z,6.28
2022-09-22T18:34:31.804Z,4.40
2022-09-22T18:39:35.240Z,3.35
2022-09-22T18:44:39.969Z,3.50
2022-09-22T18:49:43.075Z,5.57
2022-09-22T18:54:46.678Z,4.57
2022-09-22T18:59:51.025Z,4.07
2022-09-22T19:09:56.545Z,3.60
2022-09-22T19:15:01.374Z,2.92
2022-09-22T19:20:04.216Z,3.55
2022-09-22T19:25:07.520Z,3.47
2022-09-22T19:30:13.261Z,3.85
2022-09-22T19:35:17.174Z,4.03
2022-09-22T19:40:20.432Z,3.55
2022-09-22T19:45:27.389Z,3.47
2022-09-22T19:50:30.175Z,3.15
2022-09-22T19:55:33.162Z,3.03
2022-09-22T20:00:39.829Z,3.35
2022-09-22T20:05:42.544Z,3.30
2022-09-22T20:11:16.355Z,3.42
2022-09-22T20:16:21.970Z,3.70
2022-09-22T20:21:28.885Z,2.42
2022-09-22T20:26:32.289Z,3.65
2022-09-22T20:31:36.406Z,3.65
2022-09-22T20:36:39.342Z,3.58
2022-09-22T20:41:42.290Z,4.75
2022-09-22T20:46:48.315Z,8.00
2022-09-22T20:51:51.580Z,8.23
2022-09-22T20:56:57.279Z,6.00
2022-09-22T21:02:04.088Z,5.50
2022-09-22T21:07:06.933Z,5.38
2022-09-22T21:12:10.021Z,4.45
2022-09-22T21:17:15.460Z,4.72
2022-09-22T21:22:18.106Z,5.22
2022-09-22T21:27:21.333Z,4.18
2022-09-22T21:32:25.458Z,4.57
2022-09-22T21:37:28.126Z,4.55
2022-09-22T21:42:31.457Z,4.72
2022-09-22T21:47:35.488Z,4.90
2022-09-22T21:52:38.798Z,3.92
2022-09-22T21:57:41.241Z,4.53
2022-09-22T22:03:02.615Z,4.25
2022-09-22T22:08:06.190Z,3.88
2022-09-22T22:13:09.404Z,4.40
2022-09-22T22:18:13.192Z,4.50
2022-09-22T22:23:15.593Z,3.83
2022-09-22T22:28:18.072Z,4.20
2022-09-22T22:33:22.462Z,4.65
2022-09-22T22:38:25.762Z,3.38
2022-09-22T22:43:28.217Z,5.03
2022-09-22T22:48:32.471Z,4.72
2022-09-22T22:53:36.017Z,3.13
2022-09-22T22:58:39.639Z,3.80
2022-09-22T23:03:45.941Z,4.50
2022-09-22T23:08:48.787Z,4.35
2022-09-22T23:13:54.791Z,4.03
2022-09-22T23:19:01.334Z,3.95
2022-09-22T23:24:05.111Z,4.55
2022-09-22T23:29:07.697Z,4.10
2022-09-22T23:34:11.553Z,4.65
2022-09-22T23:39:14.069Z,4.27
2022-09-22T23:44:16.841Z,4.20
2022-09-22T23:49:20.895Z,3.97
2022-09-22T23:54:23.611Z,4.13
2022-09-22T23:59:26.043Z,3.88
